MSR43 HEGN-HECA
Flight info
| Callsign | MSR43 |
|---|---|
| Flight time | 0h 49m |
| Altitude | 24000 |
| Route | HGD V603 GIDID T91 EMOVA L677 CVO |
| Aircraft | B738/M-SDE2E3FGHIRWXY/LB1 |
Departure
| Time | 2026-05-06 11:35 |
|---|---|
| Airport | Hurghada International Airport (HEGN) |
Arrival
| Time | 2026-05-06 12:24 |
|---|---|
| Airport | Cairo International Airport (HECA) |
| Time | Latitude | Longitude | Altitude | Speed | Heading |
|---|---|---|---|---|---|
| 2026-05-06 11:07 | 27.19056 | 33.80352 | 57 ft | 0 kts | 75° |
| 2026-05-06 11:19 | 27.19054 | 33.80343 | 57 ft | 4 kts | 73° |
| 2026-05-06 11:19 | 27.19044 | 33.80315 | 57 ft | 4 kts | 58° |
| 2026-05-06 11:19 | 27.19028 | 33.80292 | 55 ft | 4 kts | 31° |
| 2026-05-06 11:20 | 27.19008 | 33.80286 | 57 ft | 1 kts | 345° |
| 2026-05-06 11:20 | 27.19003 | 33.80287 | 57 ft | 0 kts | 345° |
| 2026-05-06 11:23 | 27.19005 | 33.80287 | 52 ft | 1 kts | 345° |
| 2026-05-06 11:23 | 27.19015 | 33.80284 | 51 ft | 3 kts | 345° |
| 2026-05-06 11:23 | 27.19040 | 33.80277 | 56 ft | 5 kts | 345° |
| 2026-05-06 11:23 | 27.19078 | 33.80265 | 57 ft | 7 kts | 345° |
| 2026-05-06 11:24 | 27.19128 | 33.80250 | 57 ft | 8 kts | 344° |
| 2026-05-06 11:24 | 27.19188 | 33.80231 | 51 ft | 10 kts | 340° |
| 2026-05-06 11:24 | 27.19210 | 33.80166 | 53 ft | 10 kts | 256° |
| 2026-05-06 11:24 | 27.19191 | 33.80087 | 57 ft | 11 kts | 255° |
| 2026-05-06 11:25 | 27.19170 | 33.80000 | 55 ft | 12 kts | 255° |
| 2026-05-06 11:25 | 27.19148 | 33.79912 | 59 ft | 12 kts | 255° |
| 2026-05-06 11:25 | 27.19126 | 33.79818 | 56 ft | 13 kts | 255° |
| 2026-05-06 11:25 | 27.19101 | 33.79715 | 55 ft | 14 kts | 255° |
| 2026-05-06 11:26 | 27.19073 | 33.79595 | 56 ft | 18 kts | 255° |
| 2026-05-06 11:26 | 27.19038 | 33.79451 | 53 ft | 20 kts | 255° |
| 2026-05-06 11:26 | 27.19003 | 33.79303 | 63 ft | 19 kts | 255° |
| 2026-05-06 11:26 | 27.18968 | 33.79160 | 75 ft | 19 kts | 255° |
| 2026-05-06 11:27 | 27.18930 | 33.79024 | 87 ft | 18 kts | 233° |
| 2026-05-06 11:27 | 27.18814 | 33.79022 | 90 ft | 17 kts | 165° |
| 2026-05-06 11:27 | 27.18699 | 33.79056 | 94 ft | 17 kts | 165° |
| 2026-05-06 11:27 | 27.18582 | 33.79092 | 97 ft | 19 kts | 165° |
| 2026-05-06 11:28 | 27.18455 | 33.79129 | 97 ft | 19 kts | 165° |
| 2026-05-06 11:28 | 27.18331 | 33.79165 | 99 ft | 18 kts | 166° |
| 2026-05-06 11:28 | 27.18212 | 33.79201 | 98 ft | 17 kts | 165° |
| 2026-05-06 11:28 | 27.18097 | 33.79234 | 101 ft | 17 kts | 166° |
| 2026-05-06 11:29 | 27.17986 | 33.79267 | 98 ft | 16 kts | 165° |
| 2026-05-06 11:29 | 27.17872 | 33.79301 | 96 ft | 17 kts | 165° |
| 2026-05-06 11:29 | 27.17758 | 33.79335 | 95 ft | 17 kts | 165° |
| 2026-05-06 11:29 | 27.17648 | 33.79368 | 97 ft | 16 kts | 165° |
| 2026-05-06 11:30 | 27.17542 | 33.79399 | 98 ft | 15 kts | 165° |
| 2026-05-06 11:30 | 27.17439 | 33.79430 | 98 ft | 15 kts | 165° |
| 2026-05-06 11:30 | 27.17340 | 33.79459 | 101 ft | 14 kts | 165° |
| 2026-05-06 11:30 | 27.17245 | 33.79487 | 101 ft | 14 kts | 165° |
| 2026-05-06 11:31 | 27.17155 | 33.79514 | 103 ft | 13 kts | 165° |
| 2026-05-06 11:31 | 27.17067 | 33.79540 | 103 ft | 13 kts | 165° |
| 2026-05-06 11:31 | 27.16974 | 33.79567 | 106 ft | 15 kts | 165° |
| 2026-05-06 11:31 | 27.16868 | 33.79598 | 105 ft | 16 kts | 165° |
| 2026-05-06 11:32 | 27.16757 | 33.79631 | 105 ft | 16 kts | 165° |
| 2026-05-06 11:32 | 27.16650 | 33.79662 | 106 ft | 16 kts | 165° |
| 2026-05-06 11:32 | 27.16546 | 33.79693 | 107 ft | 15 kts | 165° |
| 2026-05-06 11:32 | 27.16442 | 33.79724 | 108 ft | 16 kts | 165° |
| 2026-05-06 11:33 | 27.16336 | 33.79755 | 111 ft | 15 kts | 165° |
| 2026-05-06 11:33 | 27.16235 | 33.79785 | 112 ft | 15 kts | 165° |
| 2026-05-06 11:33 | 27.16161 | 33.79736 | 115 ft | 14 kts | 252° |
| 2026-05-06 11:33 | 27.16147 | 33.79631 | 115 ft | 14 kts | 297° |
| 2026-05-06 11:34 | 27.16240 | 33.79586 | 110 ft | 17 kts | 345° |
| 2026-05-06 11:34 | 27.16423 | 33.79532 | 112 ft | 53 kts | 345° |
| 2026-05-06 11:34 | 27.17009 | 33.79359 | 108 ft | 119 kts | 345° |
| 2026-05-06 11:34 | 27.17970 | 33.79077 | 157 ft | 165 kts | 346° |
| 2026-05-06 11:35 | 27.19143 | 33.78736 | 638 ft | 183 kts | 346° |
| 2026-05-06 11:35 | 27.20441 | 33.78375 | 1154 ft | 197 kts | 346° |
| 2026-05-06 11:35 | 27.21754 | 33.78010 | 1995 ft | 190 kts | 348° |
| 2026-05-06 11:35 | 27.23023 | 33.77722 | 2837 ft | 186 kts | 349° |
| 2026-05-06 11:36 | 27.24330 | 33.77499 | 3436 ft | 195 kts | 352° |
| 2026-05-06 11:36 | 27.25754 | 33.77316 | 3626 ft | 217 kts | 352° |
| 2026-05-06 11:36 | 27.27330 | 33.77131 | 3809 ft | 237 kts | 353° |
| 2026-05-06 11:36 | 27.29027 | 33.76932 | 4043 ft | 256 kts | 353° |
| 2026-05-06 11:37 | 27.30847 | 33.76713 | 4476 ft | 268 kts | 353° |
| 2026-05-06 11:37 | 27.32707 | 33.76486 | 5216 ft | 270 kts | 353° |
| 2026-05-06 11:37 | 27.34582 | 33.76256 | 5941 ft | 273 kts | 353° |
| 2026-05-06 11:37 | 27.36476 | 33.76024 | 6671 ft | 276 kts | 353° |
| 2026-05-06 11:38 | 27.38396 | 33.75787 | 7392 ft | 279 kts | 353° |
| 2026-05-06 11:38 | 27.40341 | 33.75547 | 8094 ft | 283 kts | 353° |
| 2026-05-06 11:38 | 27.42306 | 33.75303 | 8820 ft | 286 kts | 352° |
| 2026-05-06 11:38 | 27.44299 | 33.75055 | 9563 ft | 290 kts | 352° |
| 2026-05-06 11:39 | 27.46318 | 33.74804 | 10271 ft | 295 kts | 352° |
| 2026-05-06 11:39 | 27.48439 | 33.74539 | 10497 ft | 319 kts | 352° |
| 2026-05-06 11:39 | 27.50718 | 33.74254 | 10704 ft | 340 kts | 352° |
| 2026-05-06 11:39 | 27.53107 | 33.73958 | 11176 ft | 349 kts | 352° |
| 2026-05-06 11:40 | 27.55541 | 33.73656 | 11804 ft | 354 kts | 351° |
| 2026-05-06 11:40 | 27.58007 | 33.73349 | 12498 ft | 358 kts | 351° |
| 2026-05-06 11:40 | 27.60488 | 33.73026 | 13227 ft | 360 kts | 350° |
| 2026-05-06 11:40 | 27.62978 | 33.72654 | 13925 ft | 363 kts | 349° |
| 2026-05-06 11:41 | 27.65488 | 33.72260 | 14638 ft | 366 kts | 349° |
| 2026-05-06 11:41 | 27.68025 | 33.71857 | 15346 ft | 369 kts | 349° |
| 2026-05-06 11:41 | 27.70580 | 33.71452 | 16047 ft | 373 kts | 349° |
| 2026-05-06 11:41 | 27.73157 | 33.71048 | 16730 ft | 376 kts | 349° |
| 2026-05-06 11:42 | 27.75762 | 33.70641 | 17386 ft | 379 kts | 349° |
| 2026-05-06 11:42 | 27.78385 | 33.70234 | 18017 ft | 382 kts | 349° |
| 2026-05-06 11:42 | 27.81032 | 33.69824 | 18650 ft | 385 kts | 348° |
| 2026-05-06 11:42 | 27.83703 | 33.69410 | 19255 ft | 389 kts | 348° |
| 2026-05-06 11:43 | 27.86396 | 33.68993 | 19842 ft | 393 kts | 348° |
| 2026-05-06 11:43 | 27.89116 | 33.68571 | 20411 ft | 396 kts | 348° |
| 2026-05-06 11:43 | 27.91859 | 33.68145 | 20969 ft | 399 kts | 348° |
| 2026-05-06 11:44 | 27.97385 | 33.67287 | 22240 ft | 399 kts | 348° |
| 2026-05-06 11:44 | 28.00127 | 33.66862 | 22953 ft | 397 kts | 348° |
| 2026-05-06 11:44 | 28.02861 | 33.66437 | 23601 ft | 396 kts | 348° |
| 2026-05-06 11:44 | 28.05602 | 33.66009 | 23944 ft | 398 kts | 348° |
| 2026-05-06 11:45 | 28.08326 | 33.65586 | 23952 ft | 394 kts | 348° |
| 2026-05-06 11:45 | 28.11050 | 33.65162 | 23975 ft | 396 kts | 348° |
| 2026-05-06 11:45 | 28.13784 | 33.64735 | 23971 ft | 397 kts | 348° |
| 2026-05-06 11:45 | 28.16518 | 33.64309 | 23970 ft | 397 kts | 348° |
| 2026-05-06 11:46 | 28.19256 | 33.63882 | 23970 ft | 397 kts | 348° |
| 2026-05-06 11:46 | 28.22005 | 33.63542 | 23950 ft | 399 kts | 354° |
| 2026-05-06 11:46 | 28.24790 | 33.63662 | 23975 ft | 402 kts | 0° |
| 2026-05-06 11:46 | 28.27585 | 33.63936 | 23963 ft | 403 kts | 1° |
| 2026-05-06 11:47 | 28.30378 | 33.64230 | 23965 ft | 403 kts | 1° |
| 2026-05-06 11:47 | 28.33167 | 33.64515 | 23966 ft | 403 kts | 1° |
| 2026-05-06 11:47 | 28.35923 | 33.64784 | 23955 ft | 403 kts | 0° |
| 2026-05-06 11:47 | 28.38716 | 33.65045 | 23967 ft | 403 kts | 0° |
| 2026-05-06 11:48 | 28.41509 | 33.65300 | 23970 ft | 402 kts | 0° |
| 2026-05-06 11:48 | 28.44298 | 33.65554 | 23966 ft | 403 kts | 0° |
| 2026-05-06 11:48 | 28.47089 | 33.65807 | 23957 ft | 403 kts | 0° |
| 2026-05-06 11:48 | 28.49883 | 33.66037 | 23957 ft | 401 kts | 356° |
| 2026-05-06 11:49 | 28.52581 | 33.65547 | 23971 ft | 389 kts | 335° |
| 2026-05-06 11:49 | 28.54942 | 33.64120 | 23951 ft | 382 kts | 320° |
| 2026-05-06 11:49 | 28.56831 | 33.62044 | 23988 ft | 377 kts | 307° |
| 2026-05-06 11:49 | 28.58462 | 33.59710 | 23971 ft | 377 kts | 305° |
| 2026-05-06 11:50 | 28.60070 | 33.57352 | 23971 ft | 378 kts | 305° |
| 2026-05-06 11:50 | 28.61700 | 33.55004 | 23975 ft | 378 kts | 306° |
| 2026-05-06 11:50 | 28.63349 | 33.52663 | 23967 ft | 379 kts | 306° |
| 2026-05-06 11:50 | 28.65002 | 33.50332 | 23972 ft | 379 kts | 306° |
| 2026-05-06 11:51 | 28.66658 | 33.48002 | 23975 ft | 379 kts | 306° |
| 2026-05-06 11:51 | 28.68313 | 33.45672 | 23959 ft | 378 kts | 306° |
| 2026-05-06 11:51 | 28.69966 | 33.43343 | 23972 ft | 378 kts | 306° |
| 2026-05-06 11:51 | 28.71618 | 33.41014 | 23972 ft | 377 kts | 306° |
| 2026-05-06 11:52 | 28.73265 | 33.38690 | 23975 ft | 377 kts | 306° |
| 2026-05-06 11:52 | 28.74911 | 33.36365 | 23977 ft | 377 kts | 306° |
| 2026-05-06 11:52 | 28.76557 | 33.34036 | 23981 ft | 377 kts | 306° |
| 2026-05-06 11:52 | 28.78202 | 33.31710 | 23982 ft | 377 kts | 306° |
| 2026-05-06 11:53 | 28.79843 | 33.29387 | 23990 ft | 377 kts | 306° |
| 2026-05-06 11:53 | 28.81484 | 33.27064 | 23990 ft | 377 kts | 306° |
| 2026-05-06 11:53 | 28.83127 | 33.24735 | 23990 ft | 376 kts | 306° |
| 2026-05-06 11:53 | 28.84768 | 33.22409 | 23989 ft | 376 kts | 306° |
| 2026-05-06 11:54 | 28.86405 | 33.20087 | 23989 ft | 376 kts | 306° |
| 2026-05-06 11:54 | 28.87492 | 33.18545 | 23990 ft | 376 kts | 306° |
| 2026-05-06 11:54 | 28.89132 | 33.16215 | 23993 ft | 376 kts | 306° |
| 2026-05-06 11:54 | 28.90771 | 33.13887 | 23995 ft | 376 kts | 306° |
| 2026-05-06 11:55 | 28.92404 | 33.11566 | 23999 ft | 376 kts | 306° |
| 2026-05-06 11:55 | 28.94569 | 33.08484 | 24001 ft | 375 kts | 306° |
| 2026-05-06 11:55 | 28.96203 | 33.06158 | 23999 ft | 375 kts | 306° |
| 2026-05-06 11:55 | 28.97835 | 33.03834 | 24001 ft | 375 kts | 306° |
| 2026-05-06 11:56 | 28.98940 | 33.02260 | 24001 ft | 375 kts | 306° |
| 2026-05-06 11:56 | 29.00549 | 32.99967 | 24003 ft | 375 kts | 306° |
| 2026-05-06 11:56 | 29.02181 | 32.97640 | 24008 ft | 375 kts | 306° |
| 2026-05-06 11:56 | 29.03815 | 32.95309 | 24013 ft | 376 kts | 306° |
| 2026-05-06 11:57 | 29.05449 | 32.92976 | 24011 ft | 376 kts | 306° |
| 2026-05-06 11:57 | 29.07083 | 32.90642 | 24007 ft | 376 kts | 306° |
| 2026-05-06 11:57 | 29.08715 | 32.88308 | 24012 ft | 376 kts | 306° |
| 2026-05-06 11:57 | 29.10343 | 32.85980 | 24012 ft | 376 kts | 306° |
| 2026-05-06 11:58 | 29.11974 | 32.83645 | 24022 ft | 375 kts | 306° |
| 2026-05-06 11:58 | 29.13604 | 32.81311 | 24018 ft | 375 kts | 306° |
| 2026-05-06 11:58 | 29.15233 | 32.78976 | 24019 ft | 375 kts | 306° |
| 2026-05-06 11:58 | 29.16859 | 32.76645 | 24021 ft | 375 kts | 306° |
| 2026-05-06 11:59 | 29.18484 | 32.74313 | 24023 ft | 375 kts | 306° |
| 2026-05-06 11:59 | 29.20109 | 32.71981 | 24028 ft | 375 kts | 306° |
| 2026-05-06 11:59 | 29.21733 | 32.69647 | 24029 ft | 375 kts | 306° |
| 2026-05-06 11:59 | 29.23358 | 32.67312 | 24029 ft | 375 kts | 306° |
| 2026-05-06 12:00 | 29.24984 | 32.64974 | 24029 ft | 375 kts | 306° |
| 2026-05-06 12:00 | 29.26586 | 32.62669 | 24026 ft | 375 kts | 306° |
| 2026-05-06 12:00 | 29.28229 | 32.60306 | 24027 ft | 374 kts | 306° |
| 2026-05-06 12:00 | 29.29820 | 32.58004 | 24030 ft | 374 kts | 306° |
| 2026-05-06 12:01 | 29.31431 | 32.55660 | 24033 ft | 374 kts | 306° |
| 2026-05-06 12:01 | 29.33040 | 32.53314 | 24036 ft | 374 kts | 306° |
| 2026-05-06 12:01 | 29.34642 | 32.50975 | 24038 ft | 374 kts | 306° |
| 2026-05-06 12:01 | 29.36248 | 32.48631 | 24040 ft | 373 kts | 306° |
| 2026-05-06 12:02 | 29.37826 | 32.46328 | 23989 ft | 362 kts | 306° |
| 2026-05-06 12:02 | 29.39367 | 32.44080 | 23720 ft | 355 kts | 305° |
| 2026-05-06 12:02 | 29.40888 | 32.41858 | 23326 ft | 353 kts | 305° |
| 2026-05-06 12:02 | 29.42393 | 32.39657 | 22965 ft | 349 kts | 305° |
| 2026-05-06 12:03 | 29.43885 | 32.37475 | 22558 ft | 346 kts | 305° |
| 2026-05-06 12:03 | 29.45359 | 32.35317 | 22161 ft | 343 kts | 306° |
| 2026-05-06 12:03 | 29.46825 | 32.33169 | 21764 ft | 340 kts | 306° |
| 2026-05-06 12:03 | 29.48280 | 32.31037 | 21369 ft | 338 kts | 306° |
| 2026-05-06 12:04 | 29.49720 | 32.28927 | 20983 ft | 335 kts | 306° |
| 2026-05-06 12:04 | 29.51153 | 32.26824 | 20596 ft | 333 kts | 306° |
| 2026-05-06 12:04 | 29.52577 | 32.24735 | 20198 ft | 330 kts | 306° |
| 2026-05-06 12:04 | 29.53986 | 32.22667 | 19811 ft | 328 kts | 306° |
| 2026-05-06 12:05 | 29.55383 | 32.20613 | 19437 ft | 325 kts | 306° |
| 2026-05-06 12:05 | 29.56775 | 32.18567 | 19036 ft | 324 kts | 306° |
| 2026-05-06 12:05 | 29.58158 | 32.16537 | 18663 ft | 322 kts | 306° |
| 2026-05-06 12:05 | 29.59531 | 32.14518 | 18283 ft | 320 kts | 306° |
| 2026-05-06 12:06 | 29.60898 | 32.12506 | 17906 ft | 318 kts | 306° |
| 2026-05-06 12:06 | 29.62256 | 32.10505 | 17529 ft | 316 kts | 306° |
| 2026-05-06 12:06 | 29.63607 | 32.08515 | 17159 ft | 315 kts | 306° |
| 2026-05-06 12:06 | 29.64948 | 32.06539 | 16782 ft | 313 kts | 306° |
| 2026-05-06 12:07 | 29.66283 | 32.04573 | 16413 ft | 311 kts | 306° |
| 2026-05-06 12:07 | 29.67589 | 32.02645 | 16047 ft | 309 kts | 306° |
| 2026-05-06 12:07 | 29.68925 | 32.00675 | 15677 ft | 307 kts | 306° |
| 2026-05-06 12:07 | 29.70235 | 31.98738 | 15322 ft | 306 kts | 306° |
| 2026-05-06 12:08 | 29.71536 | 31.96815 | 14944 ft | 305 kts | 306° |
| 2026-05-06 12:08 | 29.72817 | 31.94920 | 14583 ft | 304 kts | 307° |
| 2026-05-06 12:08 | 29.74112 | 31.93004 | 14218 ft | 303 kts | 307° |
| 2026-05-06 12:08 | 29.75400 | 31.91098 | 13859 ft | 301 kts | 307° |
| 2026-05-06 12:09 | 29.76468 | 31.89048 | 13478 ft | 300 kts | 290° |
| 2026-05-06 12:09 | 29.77095 | 31.86771 | 13152 ft | 297 kts | 285° |
| 2026-05-06 12:09 | 29.77636 | 31.84482 | 12758 ft | 297 kts | 285° |
| 2026-05-06 12:09 | 29.78167 | 31.82171 | 12347 ft | 299 kts | 285° |
| 2026-05-06 12:10 | 29.78692 | 31.79857 | 11978 ft | 298 kts | 285° |
| 2026-05-06 12:10 | 29.79209 | 31.77556 | 11660 ft | 295 kts | 285° |
| 2026-05-06 12:10 | 29.79717 | 31.75284 | 11387 ft | 291 kts | 284° |
| 2026-05-06 12:10 | 29.80216 | 31.73045 | 11143 ft | 287 kts | 284° |
| 2026-05-06 12:11 | 29.80708 | 31.70830 | 10904 ft | 284 kts | 284° |
| 2026-05-06 12:11 | 29.81199 | 31.68627 | 10706 ft | 284 kts | 284° |
| 2026-05-06 12:11 | 29.81688 | 31.66430 | 10529 ft | 285 kts | 284° |
| 2026-05-06 12:11 | 29.82190 | 31.64182 | 10458 ft | 295 kts | 284° |
| 2026-05-06 12:12 | 29.82708 | 31.61859 | 10318 ft | 303 kts | 284° |
| 2026-05-06 12:12 | 29.83235 | 31.59498 | 10049 ft | 305 kts | 284° |
| 2026-05-06 12:12 | 29.83757 | 31.57160 | 9975 ft | 295 kts | 284° |
| 2026-05-06 12:12 | 29.84254 | 31.54932 | 9956 ft | 279 kts | 284° |
| 2026-05-06 12:13 | 29.84731 | 31.52791 | 9543 ft | 278 kts | 284° |
| 2026-05-06 12:13 | 29.85207 | 31.50651 | 9280 ft | 275 kts | 284° |
| 2026-05-06 12:13 | 29.85679 | 31.48542 | 9069 ft | 270 kts | 284° |
| 2026-05-06 12:13 | 29.86144 | 31.46462 | 8866 ft | 265 kts | 284° |
| 2026-05-06 12:14 | 29.86598 | 31.44428 | 8717 ft | 259 kts | 284° |
| 2026-05-06 12:14 | 29.87043 | 31.42443 | 8591 ft | 252 kts | 284° |
| 2026-05-06 12:14 | 29.87467 | 31.40529 | 8525 ft | 245 kts | 284° |
| 2026-05-06 12:14 | 29.87890 | 31.38629 | 8447 ft | 244 kts | 284° |
| 2026-05-06 12:15 | 29.88316 | 31.36712 | 8171 ft | 252 kts | 284° |
| 2026-05-06 12:15 | 29.88755 | 31.34744 | 7654 ft | 256 kts | 284° |
| 2026-05-06 12:15 | 29.89198 | 31.32746 | 7092 ft | 260 kts | 284° |
| 2026-05-06 12:15 | 29.89645 | 31.30727 | 6650 ft | 259 kts | 284° |
| 2026-05-06 12:16 | 29.90061 | 31.28715 | 6227 ft | 257 kts | 278° |
| 2026-05-06 12:16 | 29.89877 | 31.26678 | 5767 ft | 259 kts | 249° |
| 2026-05-06 12:16 | 29.88966 | 31.24904 | 5395 ft | 257 kts | 236° |
| 2026-05-06 12:16 | 29.87917 | 31.23234 | 4985 ft | 255 kts | 235° |
| 2026-05-06 12:17 | 29.86895 | 31.21646 | 4897 ft | 240 kts | 234° |
| 2026-05-06 12:17 | 29.86085 | 31.20011 | 4568 ft | 233 kts | 257° |
| 2026-05-06 12:17 | 29.86086 | 31.18183 | 4174 ft | 230 kts | 289° |
| 2026-05-06 12:17 | 29.86949 | 31.16666 | 3865 ft | 230 kts | 321° |
| 2026-05-06 12:18 | 29.88389 | 31.15939 | 3607 ft | 229 kts | 353° |
| 2026-05-06 12:18 | 29.89971 | 31.16137 | 3359 ft | 230 kts | 13° |
| 2026-05-06 12:18 | 29.91511 | 31.16616 | 3120 ft | 229 kts | 17° |
| 2026-05-06 12:18 | 29.92896 | 31.17522 | 2877 ft | 231 kts | 38° |
| 2026-05-06 12:19 | 29.94013 | 31.18626 | 2718 ft | 231 kts | 44° |
| 2026-05-06 12:19 | 29.95077 | 31.20034 | 2582 ft | 232 kts | 50° |
| 2026-05-06 12:19 | 29.96097 | 31.21426 | 2476 ft | 221 kts | 40° |
| 2026-05-06 12:19 | 29.97215 | 31.22526 | 2465 ft | 207 kts | 46° |
| 2026-05-06 12:20 | 29.98030 | 31.23809 | 2492 ft | 194 kts | 51° |
| 2026-05-06 12:20 | 29.98873 | 31.25003 | 2464 ft | 193 kts | 48° |
| 2026-05-06 12:20 | 29.99721 | 31.26145 | 2457 ft | 181 kts | 47° |
| 2026-05-06 12:20 | 30.00528 | 31.27223 | 2458 ft | 175 kts | 47° |
| 2026-05-06 12:21 | 30.01320 | 31.28281 | 2457 ft | 174 kts | 47° |
| 2026-05-06 12:21 | 30.02116 | 31.29341 | 2473 ft | 176 kts | 47° |
| 2026-05-06 12:21 | 30.02896 | 31.30395 | 2459 ft | 168 kts | 49° |
| 2026-05-06 12:21 | 30.03633 | 31.31402 | 2301 ft | 162 kts | 46° |
| 2026-05-06 12:22 | 30.04371 | 31.32359 | 2146 ft | 159 kts | 47° |
| 2026-05-06 12:22 | 30.05105 | 31.33332 | 1883 ft | 158 kts | 47° |
| 2026-05-06 12:22 | 30.05806 | 31.34269 | 1695 ft | 153 kts | 47° |
| 2026-05-06 12:22 | 30.06506 | 31.35201 | 1470 ft | 153 kts | 47° |
| 2026-05-06 12:23 | 30.07207 | 31.36137 | 1276 ft | 156 kts | 47° |
| 2026-05-06 12:23 | 30.07908 | 31.37073 | 1071 ft | 153 kts | 47° |
| 2026-05-06 12:23 | 30.08602 | 31.37998 | 849 ft | 152 kts | 47° |
| 2026-05-06 12:23 | 30.09294 | 31.38921 | 670 ft | 152 kts | 47° |
| 2026-05-06 12:24 | 30.09989 | 31.39851 | 432 ft | 153 kts | 49° |
| 2026-05-06 12:24 | 30.10654 | 31.40741 | 385 ft | 132 kts | 49° |
| 2026-05-06 12:24 | 30.11114 | 31.41353 | 388 ft | 69 kts | 49° |
| 2026-05-06 12:24 | 30.11382 | 31.41585 | 387 ft | 43 kts | 20° |
| 2026-05-06 12:25 | 30.11456 | 31.41614 | 387 ft | 6 kts | 18° |
| 2026-05-06 12:25 | 30.11497 | 31.41625 | 388 ft | 6 kts | 360° |
| 2026-05-06 12:25 | 30.11535 | 31.41608 | 388 ft | 6 kts | 316° |
| 2026-05-06 12:25 | 30.11549 | 31.41564 | 388 ft | 6 kts | 267° |
| 2026-05-06 12:26 | 30.11530 | 31.41520 | 388 ft | 6 kts | 232° |
| 2026-05-06 12:26 | 30.11504 | 31.41482 | 388 ft | 6 kts | 231° |
| 2026-05-06 12:26 | 30.11478 | 31.41445 | 388 ft | 6 kts | 231° |
| 2026-05-06 12:26 | 30.11450 | 31.41410 | 388 ft | 6 kts | 227° |
| 2026-05-06 12:27 | 30.11423 | 31.41375 | 388 ft | 6 kts | 228° |